Time;durP1;ratioP1;P1;durP2;ratioP2;P2;SDS_P1;SDS_P2;PMS_P1;PMS_P2;Temp;Humidity;BMP_temperature;BMP_pressure;BME280_temperature;BME280_humidity;BME280_pressure;Samples;Min_cycle;Max_cycle;Signal;HPM_P1;HPM_P2
2023/12/27 00:00:54;;;;;;;0.73;0.28;;;;;;;7.55;100.00;99003.19;4996134;28;20041;-96
2023/12/27 00:03:20;;;;;;;1.98;0.25;;;;;;;7.59;100.00;99003.72;5015146;28;20041;-96
2023/12/27 00:05:45;;;;;;;0.93;0.20;;;;;;;7.65;100.00;98991.72;5011161;28;20041;-96
2023/12/27 00:08:29;;;;;;;0.80;0.20;;;;;;;7.71;100.00;98980.53;5011305;28;20100;-96
2023/12/27 00:10:57;;;;;;;1.23;0.30;;;;;;;7.80;100.00;98974.31;5009178;28;20033;-96
2023/12/27 00:13:48;;;;;;;0.10;0.10;;;;;;;7.87;100.00;98953.44;5005208;28;20038;-96
2023/12/27 00:16:14;;;;;;;0.85;0.30;;;;;;;7.87;100.00;98940.28;5001776;28;20025;-96
2023/12/27 00:18:43;;;;;;;0.17;0.10;;;;;;;7.94;100.00;98938.66;5001965;28;20037;-96
2023/12/27 00:21:11;;;;;;;0.20;0.10;;;;;;;8.03;100.00;98928.94;5005254;28;20204;-96
2023/12/27 00:23:37;;;;;;;0.17;0.10;;;;;;;8.03;100.00;98917.59;5005559;28;20034;-96
2023/12/27 00:26:03;;;;;;;1.30;0.20;;;;;;;8.13;100.00;98904.25;4998231;28;20042;-96
2023/12/27 00:28:29;;;;;;;1.85;0.10;;;;;;;8.18;100.00;98900.16;5007591;28;20046;-96
2023/12/27 00:30:57;;;;;;;0.30;0.10;;;;;;;8.22;100.00;98890.09;5027108;28;20041;-96
2023/12/27 00:33:23;;;;;;;0.08;0.08;;;;;;;8.29;100.00;98887.63;4999127;28;20059;-96
2023/12/27 00:35:50;;;;;;;0.50;0.10;;;;;;;8.36;100.00;98872.78;5002395;28;20045;-96
2023/12/27 00:38:50;;;;;;;0.43;0.10;;;;;;;8.65;100.00;98876.69;5000454;28;20047;-96
2023/12/27 00:41:28;;;;;;;0.10;0.00;;;;;;;8.75;100.00;98858.03;5001525;28;20145;-96
2023/12/27 00:46:59;;;;;;;0.55;0.05;;;;;;;9.22;100.00;98839.63;4995436;28;20377;-96
2023/12/27 00:49:27;;;;;;;0.32;0.13;;;;;;;9.35;100.00;98833.00;5011293;28;20034;-96
2023/12/27 00:52:13;;;;;;;1.23;0.10;;;;;;;9.53;100.00;98824.75;4995738;28;20038;-96
2023/12/27 00:54:56;;;;;;;1.75;0.20;;;;;;;9.58;100.00;98796.03;5000915;28;20065;-96
2023/12/27 00:57:24;;;;;;;2.75;0.10;;;;;;;9.66;100.00;98808.31;5015541;28;20065;-96
2023/12/27 00:59:51;;;;;;;4.53;0.10;;;;;;;9.74;100.00;98799.50;5019988;28;20045;-96
2023/12/27 01:02:17;;;;;;;0.17;0.10;;;;;;;9.71;100.00;98790.16;5014159;28;20053;-96
2023/12/27 01:04:54;;;;;;;0.68;0.10;;;;;;;9.89;100.00;98783.72;5014736;28;20048;-96
2023/12/27 01:07:25;;;;;;;0.88;0.10;;;;;;;9.83;100.00;98771.22;4998881;28;20043;-96
2023/12/27 01:09:51;;;;;;;2.40;0.20;;;;;;;9.90;100.00;98758.94;5016073;28;20069;-96
2023/12/27 01:12:20;;;;;;;0.32;0.08;;;;;;;9.96;100.00;98757.38;5017972;28;20037;-96
2023/12/27 01:14:51;;;;;;;1.15;0.17;;;;;;;10.01;100.00;98755.03;4996817;28;20053;-96
2023/12/27 01:17:25;;;;;;;1.25;0.13;;;;;;;10.03;100.00;98747.75;5004248;28;20029;-96
2023/12/27 01:19:51;;;;;;;0.50;0.10;;;;;;;10.06;100.00;98742.13;4996095;28;20029;-96
2023/12/27 01:22:20;;;;;;;2.83;0.30;;;;;;;10.11;100.00;98728.38;5009436;28;20127;-96
2023/12/27 01:24:46;;;;;;;0.43;0.10;;;;;;;10.07;100.00;98719.16;5012503;28;20490;-96
2023/12/27 01:27:13;;;;;;;0.77;0.10;;;;;;;10.13;100.00;98708.69;5015126;28;20065;-96
2023/12/27 01:29:39;;;;;;;3.72;0.20;;;;;;;10.12;100.00;98714.97;4991178;28;20429;-96
2023/12/27 01:32:07;;;;;;;1.33;0.20;;;;;;;10.12;100.00;98690.38;5020816;28;20051;-96
2023/12/27 01:34:36;;;;;;;1.33;0.13;;;;;;;10.21;100.00;98701.69;5004291;28;20136;-95
2023/12/27 01:37:02;;;;;;;0.50;0.20;;;;;;;10.18;100.00;98674.63;4999208;28;20469;-96
2023/12/27 01:39:36;;;;;;;0.98;0.20;;;;;;;10.24;100.00;98659.84;4994275;28;20038;-96
2023/12/27 01:42:11;;;;;;;1.77;0.20;;;;;;;10.21;100.00;98648.88;5000415;28;20548;-96
2023/12/27 01:44:38;;;;;;;2.85;0.40;;;;;;;10.24;100.00;98662.50;5011862;28;20037;-96
2023/12/27 01:47:04;;;;;;;3.08;0.28;;;;;;;10.29;100.00;98643.47;4994327;28;20045;-95
2023/12/27 01:49:29;;;;;;;0.15;0.10;;;;;;;10.28;100.00;98642.66;4989768;28;20029;-96
2023/12/27 01:51:55;;;;;;;1.20;0.17;;;;;;;10.27;100.00;98629.66;4996135;28;20501;-96
2023/12/27 01:54:27;;;;;;;0.75;0.40;;;;;;;10.30;100.00;98624.78;5014886;28;20101;-96
2023/12/27 02:00:10;;;;;;;2.70;0.28;;;;;;;10.35;100.00;98612.84;5011485;28;20041;-96
2023/12/27 02:02:45;;;;;;;2.05;0.20;;;;;;;10.46;100.00;98608.88;5008366;28;20054;-96
2023/12/27 02:05:16;;;;;;;0.43;0.10;;;;;;;10.50;100.00;98589.03;5010559;28;20046;-96
2023/12/27 02:07:43;;;;;;;3.28;0.30;;;;;;;10.41;100.00;98585.69;5002117;28;20120;-96
2023/12/27 02:10:11;;;;;;;2.42;0.20;;;;;;;10.45;100.00;98572.94;5003954;28;20049;-96
2023/12/27 02:12:37;;;;;;;2.50;0.40;;;;;;;10.42;100.00;98561.72;4998410;28;20033;-96
2023/12/27 02:15:06;;;;;;;3.80;0.45;;;;;;;10.46;100.00;98548.13;5003061;28;20068;-96
2023/12/27 02:17:47;;;;;;;1.95;0.22;;;;;;;10.49;100.00;98559.19;4995615;28;20046;-95
2023/12/27 02:20:14;;;;;;;1.40;0.22;;;;;;;10.50;100.00;98542.31;4997821;28;20120;-95
2023/12/27 02:22:45;;;;;;;4.30;0.52;;;;;;;10.52;100.00;98537.66;4992893;28;20030;-96
2023/12/27 02:25:17;;;;;;;2.42;0.45;;;;;;;10.52;100.00;98527.09;5008277;28;20041;-95
2023/12/27 02:27:45;;;;;;;0.75;0.10;;;;;;;10.50;100.00;98525.63;5000642;28;20033;-96
2023/12/27 02:30:21;;;;;;;2.45;0.25;;;;;;;10.51;100.00;98504.31;5014110;28;20030;-96
2023/12/27 02:32:51;;;;;;;2.10;0.30;;;;;;;10.54;100.00;98493.38;4998736;28;20038;-96
2023/12/27 02:35:18;;;;;;;4.13;0.50;;;;;;;10.57;100.00;98499.28;5015937;28;20038;-96
2023/12/27 02:37:57;;;;;;;2.83;0.30;;;;;;;10.59;100.00;98492.00;4997132;28;20038;-96
2023/12/27 02:40:28;;;;;;;3.72;0.63;;;;;;;10.56;100.00;98476.53;5008108;28;20042;-96
2023/12/27 02:43:26;;;;;;;3.45;0.57;;;;;;;10.62;100.00;98454.63;5005114;28;20067;-96
2023/12/27 02:46:01;;;;;;;3.88;0.50;;;;;;;10.64;100.00;98458.69;4997958;28;20049;-96
2023/12/27 02:48:35;;;;;;;4.95;0.70;;;;;;;10.59;100.00;98442.59;5015604;28;20029;-96
2023/12/27 02:51:04;;;;;;;3.08;0.40;;;;;;;10.68;100.00;98403.63;5016666;28;20068;-96
2023/12/27 02:53:38;;;;;;;3.35;0.50;;;;;;;10.63;100.00;98429.81;5015318;28;20026;-96
2023/12/27 02:56:10;;;;;;;4.72;0.50;;;;;;;10.69;100.00;98404.47;5011527;28;20081;-96
2023/12/27 02:58:51;;;;;;;1.42;0.47;;;;;;;10.69;100.00;98407.91;5010482;28;20093;-96
2023/12/27 03:01:18;;;;;;;5.30;0.30;;;;;;;10.76;100.00;98408.75;5017682;28;20108;-96
2023/12/27 03:03:47;;;;;;;2.45;0.32;;;;;;;10.71;100.00;98395.31;5010748;28;20025;-96
2023/12/27 03:06:14;;;;;;;4.10;0.70;;;;;;;10.68;100.00;98395.72;5011035;28;20041;-94
2023/12/27 03:08:39;;;;;;;3.78;0.40;;;;;;;10.76;100.00;98397.38;5001700;28;20087;-96
2023/12/27 03:11:06;;;;;;;1.98;0.30;;;;;;;10.76;100.00;98376.22;5015990;28;20065;-96
2023/12/27 03:13:39;;;;;;;4.18;0.30;;;;;;;10.83;100.00;98371.78;5012890;28;20697;-96
2023/12/27 03:16:07;;;;;;;2.72;0.20;;;;;;;10.74;100.00;98338.59;5013054;28;20041;-96
2023/12/27 03:27:18;;;;;;;6.20;2.45;;;;;;;10.79;100.00;98321.16;4960144;28;20046;-95
2023/12/27 03:29:44;;;;;;;14.23;5.60;;;;;;;10.75;100.00;98325.19;4995918;28;21440;-96
2023/12/27 03:32:10;;;;;;;1.48;0.10;;;;;;;10.73;100.00;98303.47;5013581;28;20060;-96
2023/12/27 03:34:48;;;;;;;0.63;0.10;;;;;;;10.76;100.00;98296.97;5015391;28;20030;-96
2023/12/27 03:37:14;;;;;;;2.25;0.22;;;;;;;10.84;100.00;98272.16;4995786;28;20038;-96
2023/12/27 03:39:46;;;;;;;1.90;0.30;;;;;;;10.87;100.00;98263.84;4999738;28;20033;-95
2023/12/27 03:42:14;;;;;;;1.33;0.10;;;;;;;10.80;100.00;98245.31;5037868;28;20033;-96
2023/12/27 03:44:42;;;;;;;3.30;0.20;;;;;;;10.81;100.00;98246.97;5021246;28;20097;-96
2023/12/27 03:47:09;;;;;;;3.67;0.32;;;;;;;10.80;100.00;98234.75;5030282;28;20026;-96
2023/12/27 03:49:35;;;;;;;1.75;0.20;;;;;;;10.86;100.00;98217.28;5006218;28;20041;-96
2023/12/27 03:52:06;;;;;;;1.95;0.30;;;;;;;10.90;100.00;98200.84;5014597;28;20471;-93
2023/12/27 03:54:32;;;;;;;7.00;0.32;;;;;;;10.90;100.00;98189.44;5008157;28;20030;-96
2023/12/27 03:56:58;;;;;;;2.33;0.20;;;;;;;10.93;100.00;98199.59;5023570;28;20045;-96
2023/12/27 03:59:24;;;;;;;3.20;0.20;;;;;;;10.88;100.00;98191.47;5005729;28;20041;-96
2023/12/27 04:01:50;;;;;;;1.15;0.13;;;;;;;10.94;100.00;98163.44;5012871;28;20125;-96
2023/12/27 04:04:19;;;;;;;2.78;0.10;;;;;;;10.91;100.00;98146.13;5015924;28;20035;-96
2023/12/27 04:06:48;;;;;;;1.98;0.30;;;;;;;10.90;100.00;98137.41;5002773;28;20462;-96
2023/12/27 04:09:14;;;;;;;1.52;0.20;;;;;;;10.91;100.00;98120.53;5007934;28;20029;-96
2023/12/27 04:11:45;;;;;;;1.08;0.40;;;;;;;10.92;100.00;98122.13;5021122;28;20037;-96
2023/12/27 04:14:23;;;;;;;2.20;0.17;;;;;;;10.98;100.00;98101.19;5028274;28;20140;-96
2023/12/27 04:17:00;;;;;;;1.58;0.17;;;;;;;10.90;100.00;98087.19;5016808;28;20045;-96
2023/12/27 04:19:39;;;;;;;1.88;0.28;;;;;;;10.96;100.00;98082.91;5026764;28;20050;-96
2023/12/27 04:22:10;;;;;;;2.63;0.30;;;;;;;11.01;100.00;98083.09;5014726;28;20092;-96
2023/12/27 04:25:33;;;;;;;3.08;0.40;;;;;;;10.98;100.00;98059.72;5040856;28;20111;-96
2023/12/27 04:28:09;;;;;;;2.22;0.38;;;;;;;11.00;100.00;98063.00;5047846;28;20037;-96
2023/12/27 04:30:37;;;;;;;1.10;0.20;;;;;;;11.02;100.00;98049.56;5019657;28;20068;-96
2023/12/27 04:33:14;;;;;;;3.05;0.30;;;;;;;11.07;100.00;98059.50;5015315;28;20065;-96
2023/12/27 04:35:41;;;;;;;1.23;0.30;;;;;;;10.98;100.00;98043.88;5017928;28;20091;-96
2023/12/27 04:38:13;;;;;;;3.20;0.17;;;;;;;11.05;100.00;98043.88;5010639;28;20025;-96
2023/12/27 04:40:47;;;;;;;1.85;0.30;;;;;;;11.09;100.00;98044.25;5010297;28;20037;-95
2023/12/27 04:43:13;;;;;;;1.50;0.20;;;;;;;11.00;100.00;98009.31;5000741;28;20034;-93
2023/12/27 04:51:45;;;;;;;1.52;0.20;;;;;;;11.11;100.00;98006.03;5015685;28;20041;-95
2023/12/27 04:54:13;;;;;;;0.63;0.20;;;;;;;11.16;100.00;97979.75;4997282;28;20041;-95
2023/12/27 04:56:43;;;;;;;0.77;0.10;;;;;;;11.19;100.00;97975.06;5031245;28;20037;-96
2023/12/27 04:59:13;;;;;;;0.38;0.10;;;;;;;11.22;100.00;97959.59;5015009;28;20017;-96
2023/12/27 05:02:11;;;;;;;1.30;0.10;;;;;;;11.25;100.00;97953.91;5015571;28;20045;-96
2023/12/27 05:05:08;;;;;;;1.75;0.10;;;;;;;11.24;100.00;97941.72;5028219;28;20037;-96
2023/12/27 05:07:46;;;;;;;1.73;0.28;;;;;;;11.27;100.00;97945.75;5004758;28;20038;-96
2023/12/27 05:13:57;;;;;;;1.00;0.10;;;;;;;11.29;100.00;97909.34;5012762;28;20042;-96
2023/12/27 05:16:54;;;;;;;0.43;0.00;;;;;;;11.28;100.00;97900.59;5030234;28;20048;-96
2023/12/27 05:19:24;;;;;;;1.23;0.05;;;;;;;11.32;100.00;97895.69;5033362;28;20125;-96
2023/12/27 05:22:04;;;;;;;3.15;0.20;;;;;;;11.34;100.00;97885.69;5012843;28;20030;-96
2023/12/27 05:25:13;;;;;;;0.40;0.10;;;;;;;11.40;100.00;97878.75;5037484;28;20045;-96
2023/12/27 05:28:43;;;;;;;1.40;0.10;;;;;;;11.38;100.00;97888.72;5008645;28;20034;-96
2023/12/27 05:31:17;;;;;;;0.17;0.10;;;;;;;11.39;100.00;97879.75;5024843;28;20041;-96
2023/12/27 05:34:10;;;;;;;1.17;0.08;;;;;;;11.44;100.00;97856.13;5032968;28;20084;-96
2023/12/27 05:36:40;;;;;;;2.72;0.20;;;;;;;11.44;100.00;97853.50;5035654;28;20033;-96
2023/12/27 05:39:14;;;;;;;2.28;0.10;;;;;;;11.48;100.00;97838.81;5037987;28;20048;-96
2023/12/27 05:41:55;;;;;;;2.58;0.40;;;;;;;11.46;100.00;97846.16;5018512;28;20038;-96
2023/12/27 05:44:30;;;;;;;1.95;0.30;;;;;;;11.53;100.00;97835.53;5004017;28;20034;-96
2023/12/27 05:47:13;;;;;;;1.15;0.10;;;;;;;11.60;100.00;97827.53;5037830;28;20029;-96
2023/12/27 05:50:03;;;;;;;1.95;0.20;;;;;;;11.65;100.00;97817.13;5033011;28;20049;-96
2023/12/27 05:52:29;;;;;;;1.15;0.17;;;;;;;11.72;100.00;97804.63;4988715;28;20040;-95
2023/12/27 05:55:05;;;;;;;1.05;0.10;;;;;;;11.78;100.00;97808.25;5005605;28;20049;-96
2023/12/27 05:57:58;;;;;;;0.77;0.10;;;;;;;11.87;100.00;97806.94;5020305;28;20045;-96
2023/12/27 06:00:56;;;;;;;0.43;0.10;;;;;;;11.92;100.00;97808.94;5046131;28;20029;-96
2023/12/27 06:03:48;;;;;;;0.55;0.10;;;;;;;11.98;100.00;97781.59;5029823;28;20022;-96
2023/12/27 06:06:23;;;;;;;1.92;0.35;;;;;;;12.05;100.00;97770.94;5018707;28;20022;-96
2023/12/27 06:08:50;;;;;;;1.52;0.20;;;;;;;12.11;100.00;97771.91;4979860;23;20043;-95
2023/12/27 06:11:16;;;;;;;0.88;0.20;;;;;;;12.19;100.00;97757.56;4943023;28;20038;-96
2023/12/27 06:13:41;;;;;;;3.53;0.30;;;;;;;12.22;100.00;97771.19;4959586;28;20376;-94
2023/12/27 06:16:09;;;;;;;2.55;0.57;;;;;;;12.28;100.00;97764.19;5026954;22;20037;-94
2023/12/27 06:18:35;;;;;;;1.08;0.20;;;;;;;12.23;100.00;97758.75;4982987;28;20026;-95
2023/12/27 06:21:01;;;;;;;2.75;0.30;;;;;;;12.26;100.00;97758.31;4998140;28;20481;-95
2023/12/27 06:23:26;;;;;;;2.60;0.55;;;;;;;12.26;100.00;97750.38;4971484;28;20085;-96
2023/12/27 06:25:52;;;;;;;2.47;0.52;;;;;;;12.26;100.00;97756.47;4995434;28;20034;-95
2023/12/27 06:28:18;;;;;;;2.38;0.60;;;;;;;12.25;100.00;97746.91;5011995;28;20044;-96
2023/12/27 06:30:44;;;;;;;4.60;0.60;;;;;;;12.26;100.00;97715.94;5017891;28;20045;-94
2023/12/27 06:33:10;;;;;;;4.30;0.65;;;;;;;12.28;100.00;97732.41;5001750;28;20033;-95
2023/12/27 06:35:36;;;;;;;5.60;0.88;;;;;;;12.28;100.00;97741.16;4979338;28;20069;-94
2023/12/27 06:38:02;;;;;;;7.13;1.00;;;;;;;12.24;100.00;97721.47;5024237;28;20060;-95
2023/12/27 06:40:28;;;;;;;5.38;0.88;;;;;;;12.33;100.00;97721.94;5010946;28;20476;-96
2023/12/27 06:42:54;;;;;;;7.03;1.20;;;;;;;12.25;100.00;97715.13;4997965;28;20046;-96
2023/12/27 06:45:20;;;;;;;6.30;1.25;;;;;;;12.30;100.00;97711.81;4984386;28;20042;-96
2023/12/27 06:47:46;;;;;;;11.60;1.85;;;;;;;12.32;100.00;97727.47;5005822;28;20029;-96
2023/12/27 06:50:12;;;;;;;8.35;2.05;;;;;;;12.26;100.00;97723.88;4999047;28;20057;-95
2023/12/27 06:52:38;;;;;;;11.63;1.88;;;;;;;12.31;100.00;97705.47;5000297;28;20026;-94
2023/12/27 06:55:04;;;;;;;9.75;2.03;;;;;;;12.30;100.00;97714.47;5000507;28;20092;-96
2023/12/27 06:57:30;;;;;;;9.55;1.70;;;;;;;12.21;100.00;97713.97;4997337;28;20394;-96
2023/12/27 06:59:56;;;;;;;11.27;1.67;;;;;;;12.25;100.00;97709.00;5007615;28;20049;-96
2023/12/27 07:02:22;;;;;;;9.45;1.88;;;;;;;12.30;100.00;97706.50;5011737;28;20473;-94
2023/12/27 07:04:47;;;;;;;12.45;2.13;;;;;;;12.23;100.00;97708.44;4998100;28;20045;-96
2023/12/27 07:07:13;;;;;;;5.47;1.33;;;;;;;12.20;100.00;97703.59;5012202;28;20462;-95
2023/12/27 07:09:39;;;;;;;13.43;1.83;;;;;;;12.19;100.00;97707.25;5001430;28;20033;-96
2023/12/27 07:12:05;;;;;;;10.23;1.95;;;;;;;12.19;100.00;97710.72;4981213;28;20022;-95
2023/12/27 07:14:31;;;;;;;13.13;1.75;;;;;;;12.23;100.00;97703.16;4977996;28;20049;-94
2023/12/27 07:16:56;;;;;;;10.85;1.55;;;;;;;12.21;100.00;97707.84;5006835;28;20028;-96
2023/12/27 07:19:22;;;;;;;11.43;1.55;;;;;;;12.19;100.00;97676.31;5014158;28;20022;-95
2023/12/27 07:21:48;;;;;;;7.65;1.27;;;;;;;12.11;100.00;97680.06;4995367;28;20037;-96
2023/12/27 07:24:14;;;;;;;9.10;1.50;;;;;;;12.15;100.00;97688.38;4983657;28;20363;-96
2023/12/27 07:26:39;;;;;;;7.57;1.25;;;;;;;12.13;100.00;97669.25;4998883;28;20103;-94
2023/12/27 07:29:05;;;;;;;9.15;1.17;;;;;;;12.14;100.00;97681.44;4999494;28;20026;-96
2023/12/27 07:31:31;;;;;;;9.20;1.30;;;;;;;12.12;100.00;97667.66;4988577;28;20025;-95
2023/12/27 07:33:57;;;;;;;7.40;1.10;;;;;;;12.13;100.00;97677.19;4996537;28;20041;-96
2023/12/27 07:36:22;;;;;;;12.23;1.58;;;;;;;12.10;100.00;97693.53;4996392;28;20665;-96
2023/12/27 07:38:48;;;;;;;8.32;1.70;;;;;;;12.13;100.00;97730.16;4998725;28;20091;-96
2023/12/27 07:41:14;;;;;;;9.73;1.30;;;;;;;12.13;100.00;97753.97;5000412;28;20038;-96
2023/12/27 07:43:41;;;;;;;0.85;0.20;;;;;;;11.87;100.00;97743.44;4998644;28;20048;-96
2023/12/27 07:46:08;;;;;;;4.03;0.20;;;;;;;11.47;100.00;97743.78;4977679;28;20120;-95
2023/12/27 07:48:34;;;;;;;1.60;0.10;;;;;;;11.19;100.00;97730.00;4994817;28;20081;-95
2023/12/27 07:51:00;;;;;;;0.57;0.03;;;;;;;10.94;100.00;97738.72;5026205;28;20481;-96
2023/12/27 07:53:25;;;;;;;0.32;0.00;;;;;;;10.81;100.00;97744.09;4998434;28;20061;-95
2023/12/27 07:55:54;;;;;;;0.00;0.00;;;;;;;10.69;100.00;97755.34;4995220;28;20037;-94
2023/12/27 07:58:20;;;;;;;0.00;0.00;;;;;;;10.61;100.00;97743.19;4986925;28;20100;-95
2023/12/27 08:00:46;;;;;;;0.15;0.00;;;;;;;10.57;100.00;97739.34;4993891;28;20026;-96
2023/12/27 08:03:11;;;;;;;0.00;0.00;;;;;;;10.53;100.00;97738.13;4998443;28;20049;-95
2023/12/27 08:05:37;;;;;;;0.22;0.00;;;;;;;10.48;100.00;97741.41;4980802;28;20049;-96
2023/12/27 08:08:03;;;;;;;0.00;0.00;;;;;;;10.42;100.00;97732.50;4982164;28;20026;-95
2023/12/27 08:10:30;;;;;;;0.03;0.00;;;;;;;10.39;100.00;97743.47;4981262;28;20041;-95
2023/12/27 08:12:57;;;;;;;0.00;0.00;;;;;;;10.37;100.00;97745.50;5005803;28;20022;-95
2023/12/27 08:15:23;;;;;;;0.00;0.00;;;;;;;10.33;100.00;97748.78;5022472;28;20061;-95
2023/12/27 08:17:49;;;;;;;0.00;0.00;;;;;;;10.33;100.00;97746.13;4981446;28;20413;-95
2023/12/27 08:20:15;;;;;;;1.27;0.10;;;;;;;10.29;100.00;97738.63;4996163;28;20037;-96
2023/12/27 08:22:41;;;;;;;0.00;0.00;;;;;;;10.26;100.00;97740.88;4982530;28;20030;-96
2023/12/27 08:25:12;;;;;;;0.05;0.00;;;;;;;10.24;100.00;97738.44;4997317;28;20080;-95
2023/12/27 08:27:38;;;;;;;0.03;0.00;;;;;;;10.26;100.00;97744.34;5012389;28;20036;-95
2023/12/27 08:30:05;;;;;;;0.00;0.00;;;;;;;10.23;100.00;97754.50;5022593;28;20060;-96
2023/12/27 08:32:31;;;;;;;0.03;0.00;;;;;;;10.18;100.00;97749.84;4993055;28;20021;-95
2023/12/27 08:34:57;;;;;;;0.10;0.05;;;;;;;10.14;100.00;97762.66;4994269;28;20036;-96
2023/12/27 08:37:23;;;;;;;0.68;0.10;;;;;;;10.14;100.00;97769.75;4996646;28;20096;-96
2023/12/27 08:39:48;;;;;;;0.28;0.20;;;;;;;10.11;100.00;97767.53;4975919;28;20038;-95
2023/12/27 08:42:14;;;;;;;0.10;0.10;;;;;;;10.06;100.00;97754.97;4980407;28;20033;-95
2023/12/27 08:44:40;;;;;;;0.00;0.00;;;;;;;10.05;100.00;97759.44;4995891;28;20041;-95
2023/12/27 08:47:06;;;;;;;0.63;0.10;;;;;;;10.07;100.00;97761.84;4995421;28;20034;-95
2023/12/27 08:49:31;;;;;;;0.17;0.03;;;;;;;10.08;100.00;97757.41;5003010;28;20125;-86
2023/12/27 08:51:57;;;;;;;0.00;0.00;;;;;;;10.06;100.00;97757.59;5002272;28;20466;-95
2023/12/27 08:54:23;;;;;;;0.85;0.00;;;;;;;10.09;100.00;97756.38;5011463;28;20022;-95
2023/12/27 08:56:49;;;;;;;0.00;0.00;;;;;;;10.11;100.00;97763.09;5002360;28;20037;-95
2023/12/27 08:59:14;;;;;;;0.00;0.00;;;;;;;10.14;100.00;97767.13;5007100;28;20042;-95
2023/12/27 09:01:40;;;;;;;0.00;0.00;;;;;;;10.10;100.00;97772.00;5002376;28;20077;-95
2023/12/27 09:04:06;;;;;;;0.00;0.00;;;;;;;10.09;100.00;97773.03;4977769;28;20034;-94
2023/12/27 09:06:31;;;;;;;0.03;0.00;;;;;;;10.10;100.00;97769.34;4994009;28;20410;-95
2023/12/27 09:08:57;;;;;;;0.65;0.10;;;;;;;10.13;100.00;97770.78;5016724;28;20033;-96
2023/12/27 09:11:23;;;;;;;0.00;0.00;;;;;;;10.11;100.00;97764.91;4997431;28;20041;-95
2023/12/27 09:13:49;;;;;;;0.10;0.10;;;;;;;10.10;100.00;97765.91;5006561;28;20041;-95
2023/12/27 09:16:14;;;;;;;0.10;0.10;;;;;;;10.12;100.00;97767.31;5012928;28;20054;-94
2023/12/27 09:18:40;;;;;;;0.00;0.00;;;;;;;10.13;100.00;97753.09;5011098;28;20121;-94
2023/12/27 09:21:06;;;;;;;0.13;0.10;;;;;;;10.13;100.00;97754.94;4996579;28;20045;-95
2023/12/27 09:23:32;;;;;;;4.38;0.03;;;;;;;10.16;100.00;97747.41;4981956;28;20485;-95
2023/12/27 09:25:57;;;;;;;0.00;0.00;;;;;;;10.15;100.00;97755.53;4995101;28;20570;-96
2023/12/27 09:28:25;;;;;;;0.90;0.00;;;;;;;10.11;100.00;97759.63;5009652;28;20500;-95
2023/12/27 09:30:52;;;;;;;0.00;0.00;;;;;;;10.13;100.00;97765.50;4976249;28;20422;-95
2023/12/27 09:33:18;;;;;;;0.85;0.00;;;;;;;10.12;100.00;97769.16;5007993;28;20583;-96
2023/12/27 09:35:43;;;;;;;0.00;0.00;;;;;;;10.12;100.00;97764.69;4983870;28;20061;-83
2023/12/27 09:38:09;;;;;;;0.00;0.00;;;;;;;10.13;100.00;97768.94;5008157;28;20067;-96
2023/12/27 09:40:35;;;;;;;0.00;0.00;;;;;;;10.10;100.00;97774.63;4999113;28;20092;-95
2023/12/27 09:43:05;;;;;;;0.00;0.00;;;;;;;10.10;100.00;97771.19;4992358;28;20034;-95
2023/12/27 09:45:35;;;;;;;0.05;0.00;;;;;;;10.12;100.00;97777.06;4991426;28;20033;-95
2023/12/27 09:48:04;;;;;;;0.13;0.10;;;;;;;10.12;100.00;97775.25;5008778;28;20037;-95
2023/12/27 09:50:29;;;;;;;1.58;0.00;;;;;;;10.10;100.00;97776.47;4996209;28;20131;-96
2023/12/27 09:52:56;;;;;;;0.00;0.00;;;;;;;10.11;100.00;97771.00;5012216;28;20026;-96
2023/12/27 09:55:22;;;;;;;0.55;0.10;;;;;;;10.09;100.00;97778.31;5010203;28;20033;-95
2023/12/27 09:57:50;;;;;;;0.10;0.10;;;;;;;10.09;100.00;97769.56;5009270;28;20487;-86
2023/12/27 10:00:17;;;;;;;0.00;0.00;;;;;;;10.10;100.00;97784.38;4993534;28;20475;-95
2023/12/27 10:02:44;;;;;;;0.10;0.10;;;;;;;10.11;100.00;97783.38;5013127;28;20057;-95
2023/12/27 10:05:22;;;;;;;0.00;0.00;;;;;;;10.08;100.00;97781.16;5012893;28;20371;-95
2023/12/27 10:07:48;;;;;;;1.65;0.10;;;;;;;10.04;100.00;97788.66;5003244;28;20057;-96
2023/12/27 10:10:14;;;;;;;0.95;0.10;;;;;;;10.03;100.00;97789.69;4993357;28;20046;-96
2023/12/27 10:12:41;;;;;;;0.30;0.00;;;;;;;10.03;100.00;97787.84;4997510;28;20027;-94
2023/12/27 10:15:12;;;;;;;0.50;0.30;;;;;;;10.04;100.00;97784.22;4970295;28;20057;-95
2023/12/27 10:17:38;;;;;;;7.10;5.32;;;;;;;10.04;100.00;97789.47;5008543;28;20130;-95
2023/12/27 10:20:06;;;;;;;15.73;10.73;;;;;;;10.02;100.00;97774.84;5018936;28;20062;-96
2023/12/27 10:22:32;;;;;;;22.08;17.15;;;;;;;10.00;100.00;97777.69;5009291;28;20034;-95
2023/12/27 10:24:59;;;;;;;13.95;12.20;;;;;;;10.02;100.00;97780.94;4992275;28;20088;-94
2023/12/27 10:27:28;;;;;;;15.38;13.73;;;;;;;10.02;100.00;97772.22;5006670;28;20031;-95
2023/12/27 10:29:56;;;;;;;2.88;2.67;;;;;;;9.97;100.00;97774.69;4991432;28;20065;-95
2023/12/27 10:32:22;;;;;;;16.23;9.40;;;;;;;9.98;100.00;97786.84;4976373;28;20037;-95
2023/12/27 10:34:49;;;;;;;43.25;27.10;;;;;;;10.02;100.00;97788.03;4990815;28;20041;-95
2023/12/27 10:37:16;;;;;;;33.33;20.40;;;;;;;10.00;100.00;97780.34;5008264;28;20042;-95
2023/12/27 10:39:45;;;;;;;31.27;25.38;;;;;;;10.08;100.00;97786.44;5005071;28;20042;-95
2023/12/27 10:42:17;;;;;;;17.02;13.18;;;;;;;10.11;100.00;97789.47;4978040;28;20052;-95
2023/12/27 10:44:45;;;;;;;17.48;13.60;;;;;;;10.11;100.00;97793.94;4991879;28;20041;-96
2023/12/27 10:47:18;;;;;;;21.98;17.15;;;;;;;10.12;100.00;97788.44;5010176;28;20068;-96
2023/12/27 10:49:50;;;;;;;15.88;13.27;;;;;;;10.12;100.00;97788.44;4991664;28;20483;-95
2023/12/27 10:52:19;;;;;;;7.13;6.53;;;;;;;10.09;100.00;97780.13;4995955;28;20049;-96
2023/12/27 10:54:50;;;;;;;15.18;13.77;;;;;;;10.12;100.00;97777.88;4988168;28;20092;-96
2023/12/27 10:57:21;;;;;;;6.78;6.18;;;;;;;10.14;100.00;97772.41;4979716;28;20040;-94
2023/12/27 10:59:48;;;;;;;5.35;4.90;;;;;;;10.09;100.00;97769.56;5000554;28;20095;-95
2023/12/27 11:02:14;;;;;;;3.67;3.38;;;;;;;10.05;100.00;97769.97;4991604;28;20069;-95
2023/12/27 11:04:44;;;;;;;4.78;3.88;;;;;;;10.11;100.00;97767.53;5024838;28;20048;-96
2023/12/27 11:07:11;;;;;;;33.75;25.25;;;;;;;10.11;100.00;97780.72;5012980;28;20042;-95
2023/12/27 11:09:40;;;;;;;19.77;14.43;;;;;;;10.14;100.00;97775.03;5010594;28;20092;-95
2023/12/27 11:12:08;;;;;;;14.88;11.90;;;;;;;10.13;100.00;97762.88;5017740;28;20052;-91
2023/12/27 11:14:37;;;;;;;10.15;8.05;;;;;;;10.14;100.00;97765.31;5012890;28;20053;-95
2023/12/27 11:17:08;;;;;;;8.82;7.93;;;;;;;10.16;100.00;97759.81;5013370;28;20044;-95
2023/12/27 11:19:34;;;;;;;32.35;27.45;;;;;;;10.13;100.00;97761.03;5002213;28;20038;-95
2023/12/27 11:22:00;;;;;;;3.75;3.38;;;;;;;10.15;100.00;97755.53;5010522;28;20049;-96
2023/12/27 11:24:26;;;;;;;2.15;1.95;;;;;;;10.13;100.00;97753.09;4995892;28;20036;-94
2023/12/27 11:27:00;;;;;;;1.33;0.82;;;;;;;10.21;100.00;97746.00;5005186;28;20128;-95
2023/12/27 11:29:27;;;;;;;1.17;1.10;;;;;;;10.21;100.00;97746.78;4986200;28;20560;-96
2023/12/27 11:31:53;;;;;;;4.38;3.95;;;;;;;10.16;100.00;97747.41;5024001;28;20030;-95
2023/12/27 11:34:20;;;;;;;4.20;3.15;;;;;;;10.17;100.00;97740.31;4992456;28;20116;-96
2023/12/27 11:36:46;;;;;;;2.17;1.27;;;;;;;10.18;100.00;97734.00;5032419;28;20030;-95
2023/12/27 11:39:20;;;;;;;4.72;4.32;;;;;;;10.26;100.00;97743.50;5024988;28;20064;-95
2023/12/27 11:41:47;;;;;;;2.50;2.30;;;;;;;10.21;100.00;97728.31;4997431;28;20034;-95
2023/12/27 11:44:17;;;;;;;3.40;3.10;;;;;;;10.23;100.00;97731.56;4997020;28;20065;-94
2023/12/27 11:46:43;;;;;;;3.00;2.40;;;;;;;10.20;100.00;97725.88;4997165;28;20030;-94
2023/12/27 11:49:18;;;;;;;11.43;9.25;;;;;;;10.24;100.00;97727.09;4998408;28;20054;-96
2023/12/27 11:51:45;;;;;;;7.65;6.95;;;;;;;10.20;100.00;97725.88;4988105;28;20032;-96
2023/12/27 11:54:23;;;;;;;16.30;14.60;;;;;;;10.23;100.00;97728.91;4979872;28;20038;-94
2023/12/27 11:56:50;;;;;;;12.85;10.60;;;;;;;10.16;100.00;97721.00;5028098;28;20087;-95
2023/12/27 11:59:16;;;;;;;30.00;26.17;;;;;;;10.14;100.00;97717.78;4994938;28;20111;-96
2023/12/27 12:01:42;;;;;;;18.85;13.43;;;;;;;10.18;100.00;97726.09;5014775;28;20030;-94